createdAt,value
2023-02-04T00:01:35.527Z,2.00
2023-02-04T00:04:09.323Z,2.00
2023-02-04T00:06:42.568Z,2.00
2023-02-04T00:09:16.621Z,2.10
2023-02-04T00:11:51.723Z,2.10
2023-02-04T00:17:20.341Z,2.40
2023-02-04T00:19:57.007Z,1.90
2023-02-04T00:22:38.734Z,1.83
2023-02-04T00:25:18.286Z,2.17
2023-02-04T00:28:20.723Z,2.27
2023-02-04T00:31:21.419Z,1.57
2023-02-04T00:34:02.938Z,1.80
2023-02-04T00:36:42.061Z,2.00
2023-02-04T00:39:17.419Z,1.60
2023-02-04T00:41:54.859Z,1.90
2023-02-04T00:44:35.156Z,1.60
2023-02-04T00:47:09.922Z,1.40
2023-02-04T00:49:42.960Z,1.60
2023-02-04T00:52:17.721Z,2.00
2023-02-04T00:54:51.126Z,1.80
2023-02-04T00:57:26.849Z,1.70
2023-02-04T01:00:09.244Z,1.60
2023-02-04T01:02:46.457Z,1.60
2023-02-04T01:05:21.242Z,1.60
2023-02-04T01:07:58.919Z,1.70
2023-02-04T01:10:45.580Z,2.13
2023-02-04T01:13:18.511Z,1.40
2023-02-04T01:16:14.883Z,1.63
2023-02-04T01:18:49.376Z,1.73
2023-02-04T01:21:23.288Z,1.60
2023-02-04T01:23:56.545Z,1.70
2023-02-04T01:26:34.487Z,1.50
2023-02-04T01:29:08.436Z,1.80
2023-02-04T01:31:42.093Z,1.73
2023-02-04T01:34:16.452Z,1.40
2023-02-04T01:36:54.252Z,1.90
2023-02-04T01:39:27.228Z,1.90
2023-02-04T01:42:08.671Z,1.87
2023-02-04T01:44:46.541Z,1.80
2023-02-04T01:47:19.879Z,1.90
2023-02-04T01:49:57.472Z,1.90
2023-02-04T01:52:34.588Z,1.60
2023-02-04T01:55:14.807Z,1.60
2023-02-04T01:57:52.909Z,1.70
2023-02-04T02:00:29.731Z,1.43
2023-02-04T02:03:05.050Z,1.47
2023-02-04T02:05:51.822Z,1.60
2023-02-04T02:08:25.024Z,1.33
2023-02-04T02:11:00.780Z,1.67
2023-02-04T02:13:33.719Z,1.77
2023-02-04T02:16:07.108Z,1.43
2023-02-04T02:18:40.324Z,1.30
2023-02-04T02:21:19.552Z,1.70
2023-02-04T02:23:55.589Z,1.90
2023-02-04T02:26:31.112Z,1.70
2023-02-04T02:29:06.984Z,1.60
2023-02-04T02:31:42.770Z,1.87
2023-02-04T02:34:15.882Z,1.53
2023-02-04T02:36:48.966Z,1.40
2023-02-04T02:39:23.818Z,1.63
2023-02-04T02:42:06.741Z,1.40
2023-02-04T02:44:43.163Z,1.30
2023-02-04T02:47:16.793Z,1.80
2023-02-04T02:49:54.426Z,1.60
2023-02-04T02:52:29.821Z,1.83
2023-02-04T02:55:05.080Z,1.50
2023-02-04T02:57:38.168Z,1.70
2023-02-04T03:00:15.131Z,2.07
2023-02-04T03:02:51.908Z,1.80
2023-02-04T03:05:26.279Z,2.23
2023-02-04T03:08:04.967Z,2.13
2023-02-04T03:10:43.090Z,1.80
2023-02-04T03:13:16.986Z,1.50
2023-02-04T03:15:49.980Z,1.60
2023-02-04T03:18:23.752Z,1.50
2023-02-04T03:20:59.651Z,1.67
2023-02-04T03:23:33.241Z,1.87
2023-02-04T03:26:07.984Z,1.70
2023-02-04T03:28:43.178Z,1.67
2023-02-04T03:31:16.706Z,1.33
2023-02-04T03:33:49.831Z,1.40
2023-02-04T03:36:26.078Z,1.93
2023-02-04T03:39:02.316Z,1.63
2023-02-04T03:41:38.190Z,1.50
2023-02-04T03:44:14.414Z,1.50
2023-02-04T03:46:47.359Z,1.80
2023-02-04T03:49:20.192Z,1.43
2023-02-04T03:51:58.275Z,1.77
2023-02-04T03:54:33.942Z,1.70
2023-02-04T03:57:10.832Z,1.63
2023-02-04T03:59:43.893Z,1.57
2023-02-04T04:02:17.803Z,1.70
2023-02-04T04:04:50.608Z,1.30
2023-02-04T04:07:23.800Z,1.63
2023-02-04T04:09:58.786Z,1.70
2023-02-04T04:12:34.063Z,1.50
2023-02-04T04:15:09.724Z,1.50
2023-02-04T04:17:42.893Z,1.20
2023-02-04T04:20:16.089Z,1.50
2023-02-04T04:22:49.043Z,1.40
2023-02-04T04:25:22.038Z,1.60
2023-02-04T04:27:57.273Z,1.30
2023-02-04T04:30:34.901Z,1.80
2023-02-04T04:33:08.289Z,1.50
2023-02-04T04:35:42.214Z,1.97
2023-02-04T04:38:15.301Z,1.33
2023-02-04T04:40:48.673Z,1.90
2023-02-04T04:43:22.847Z,1.70
2023-02-04T04:45:58.100Z,1.73
2023-02-04T04:48:31.237Z,1.70
2023-02-04T04:51:04.545Z,1.60
2023-02-04T04:53:38.353Z,1.70
2023-02-04T04:56:11.127Z,1.70
2023-02-04T04:58:45.281Z,1.70
2023-02-04T05:01:18.437Z,1.60
2023-02-04T05:03:51.470Z,1.67
2023-02-04T05:06:25.450Z,1.70
2023-02-04T05:08:58.199Z,1.97
2023-02-04T05:11:31.221Z,2.00
2023-02-04T05:14:05.865Z,1.90
2023-02-04T05:16:38.962Z,1.90
2023-02-04T05:19:13.586Z,1.90
2023-02-04T05:21:48.882Z,1.70
2023-02-04T05:24:22.070Z,1.77
2023-02-04T05:26:54.922Z,1.43
2023-02-04T05:29:30.183Z,2.07
2023-02-04T05:32:03.177Z,1.47
2023-02-04T05:34:36.272Z,1.70
2023-02-04T05:37:09.362Z,1.63
2023-02-04T05:39:42.354Z,1.90
2023-02-04T05:42:15.208Z,2.13
2023-02-04T05:44:49.521Z,1.87
2023-02-04T05:47:22.520Z,1.60
2023-02-04T05:49:58.118Z,1.73
2023-02-04T05:52:31.359Z,1.70
2023-02-04T05:55:07.936Z,1.80
2023-02-04T05:57:42.841Z,1.60
2023-02-04T06:00:17.606Z,1.87
2023-02-04T06:02:50.499Z,1.93
2023-02-04T06:05:24.221Z,2.10
2023-02-04T06:07:57.171Z,1.90
2023-02-04T06:10:30.998Z,1.80
2023-02-04T06:13:04.388Z,2.07
2023-02-04T06:15:38.864Z,2.00
2023-02-04T06:18:12.332Z,1.40
2023-02-04T06:20:45.140Z,2.17
2023-02-04T06:23:17.968Z,1.90
2023-02-04T06:25:50.756Z,1.83
2023-02-04T06:28:23.694Z,1.97
2023-02-04T06:30:59.226Z,2.00
2023-02-04T06:33:32.124Z,2.83
2023-02-04T06:36:05.339Z,2.57
2023-02-04T06:38:38.122Z,2.43
2023-02-04T06:41:11.278Z,2.60
2023-02-04T06:43:44.142Z,2.43
2023-02-04T06:46:20.969Z,2.67
2023-02-04T06:48:53.625Z,2.30
2023-02-04T06:51:28.190Z,2.40
2023-02-04T06:54:01.310Z,2.30
2023-02-04T06:56:34.617Z,2.50
2023-02-04T06:59:07.426Z,2.63
2023-02-04T07:01:42.046Z,2.60
2023-02-04T07:04:15.537Z,2.17
2023-02-04T07:06:49.945Z,2.07
2023-02-04T07:09:22.877Z,2.43
2023-02-04T07:11:55.783Z,2.47
2023-02-04T07:14:28.589Z,3.00
2023-02-04T07:17:03.340Z,2.93
2023-02-04T07:19:36.385Z,2.73
2023-02-04T07:22:10.157Z,3.10
2023-02-04T07:24:43.593Z,2.80
2023-02-04T07:27:16.579Z,2.60
2023-02-04T07:29:49.623Z,2.53
2023-02-04T07:32:24.375Z,2.20
2023-02-04T07:34:57.859Z,2.60
2023-02-04T07:37:30.796Z,2.13
2023-02-04T07:40:03.717Z,1.93
2023-02-04T07:42:36.783Z,2.70
2023-02-04T07:45:10.155Z,2.30
2023-02-04T07:47:46.577Z,2.40
2023-02-04T07:50:21.299Z,2.20
2023-02-04T07:52:54.557Z,2.27
2023-02-04T07:55:28.709Z,2.00
2023-02-04T07:58:02.358Z,2.00
2023-02-04T08:00:35.330Z,2.00
2023-02-04T08:03:10.735Z,2.73
2023-02-04T08:05:47.142Z,2.20
2023-02-04T08:08:21.224Z,2.30
2023-02-04T08:10:54.346Z,2.23
2023-02-04T08:13:27.844Z,2.20
2023-02-04T08:16:00.912Z,1.70
2023-02-04T08:18:36.496Z,2.00
2023-02-04T08:21:09.530Z,2.13
2023-02-04T08:23:42.674Z,2.63
2023-02-04T08:26:15.768Z,2.20
2023-02-04T08:28:49.122Z,1.53
2023-02-04T08:31:22.461Z,2.20
2023-02-04T08:33:57.749Z,1.83
2023-02-04T08:36:30.802Z,2.73
2023-02-04T08:39:04.705Z,2.00
2023-02-04T08:41:38.083Z,2.07
2023-02-04T08:44:11.520Z,1.60
2023-02-04T08:46:45.117Z,2.20
2023-02-04T08:49:20.433Z,2.00
2023-02-04T08:51:53.737Z,2.20
2023-02-04T08:54:30.001Z,2.00
2023-02-04T08:57:03.655Z,2.30
2023-02-04T08:59:41.941Z,2.00
2023-02-04T09:02:15.006Z,1.80
2023-02-04T09:04:49.523Z,1.80
2023-02-04T09:07:22.623Z,1.80
2023-02-04T09:09:59.288Z,1.70
2023-02-04T09:12:35.771Z,2.00
2023-02-04T09:15:09.780Z,1.83
2023-02-04T09:17:44.138Z,2.10
2023-02-04T09:20:18.927Z,2.10
2023-02-04T09:22:51.713Z,2.37
2023-02-04T09:25:25.353Z,1.77
2023-02-04T09:27:58.720Z,2.00
2023-02-04T09:30:32.346Z,1.80
2023-02-04T09:33:06.379Z,1.77
2023-02-04T09:35:42.527Z,1.47
2023-02-04T09:38:16.066Z,1.63
2023-02-04T09:40:52.251Z,1.80
2023-02-04T09:43:28.258Z,1.73
2023-02-04T09:46:02.290Z,1.90
2023-02-04T09:48:36.159Z,1.30
2023-02-04T09:51:13.927Z,1.33
2023-02-04T09:53:47.428Z,1.30
2023-02-04T09:56:21.307Z,1.83
2023-02-04T09:58:54.810Z,1.77
2023-02-04T10:01:29.377Z,1.80
2023-02-04T10:04:03.712Z,1.50
2023-02-04T10:06:39.216Z,1.50
2023-02-04T10:09:14.504Z,1.63
2023-02-04T10:11:49.112Z,1.60
2023-02-04T10:14:25.062Z,1.70
2023-02-04T10:16:59.919Z,1.63
2023-02-04T10:19:33.206Z,1.87
2023-02-04T10:22:16.831Z,1.73
2023-02-04T10:24:50.885Z,1.40
2023-02-04T10:27:25.789Z,1.33
2023-02-04T10:29:59.108Z,1.90
2023-02-04T10:32:33.402Z,1.47
2023-02-04T10:35:06.981Z,1.50
2023-02-04T10:37:44.012Z,1.40
2023-02-04T10:40:30.376Z,1.43
2023-02-04T10:43:09.459Z,1.00
2023-02-04T10:45:48.913Z,1.30
2023-02-04T10:48:22.914Z,1.50
2023-02-04T10:50:58.293Z,1.43
2023-02-04T10:53:49.903Z,1.57
2023-02-04T10:56:26.209Z,1.53
2023-02-04T10:58:59.558Z,1.30
2023-02-04T11:01:32.945Z,1.50
2023-02-04T11:04:15.634Z,1.23
2023-02-04T11:06:48.600Z,1.30
2023-02-04T11:09:33.833Z,1.23
2023-02-04T11:12:07.821Z,1.20
2023-02-04T11:14:41.267Z,1.07
2023-02-04T11:17:23.562Z,1.17
2023-02-04T11:19:57.226Z,1.10
2023-02-04T11:22:42.736Z,1.87
2023-02-04T11:25:39.497Z,1.60
2023-02-04T11:28:29.301Z,1.20
2023-02-04T11:31:41.755Z,1.50
2023-02-04T11:34:32.333Z,1.87
2023-02-04T11:37:31.001Z,1.23
2023-02-04T11:40:25.091Z,1.30
2023-02-04T11:43:05.656Z,1.50
2023-02-04T11:46:00.274Z,1.10
2023-02-04T11:48:38.170Z,1.30
2023-02-04T11:51:17.193Z,1.20
2023-02-04T11:53:58.672Z,1.43
2023-02-04T11:56:36.863Z,1.27
2023-02-04T11:59:17.739Z,1.20
2023-02-04T12:01:52.691Z,1.47
2023-02-04T12:04:31.059Z,1.70
2023-02-04T12:07:05.707Z,1.17
2023-02-04T12:09:49.489Z,1.30
2023-02-04T12:12:26.629Z,1.33
2023-02-04T12:15:04.128Z,1.53
2023-02-04T12:17:39.357Z,1.57
2023-02-04T12:20:13.112Z,1.10
2023-02-04T12:22:48.432Z,1.30
2023-02-04T12:25:23.466Z,1.20
2023-02-04T12:28:01.978Z,1.20
2023-02-04T12:30:37.227Z,1.30
2023-02-04T12:33:11.676Z,0.90
2023-02-04T12:35:45.873Z,1.43
2023-02-04T12:38:20.473Z,1.40
2023-02-04T12:40:54.171Z,1.17
2023-02-04T12:43:30.758Z,1.50
2023-02-04T12:46:08.604Z,1.80
2023-02-04T12:48:44.490Z,1.20
2023-02-04T12:51:21.535Z,1.20
2023-02-04T12:53:54.802Z,1.00
2023-02-04T12:56:28.173Z,1.20
2023-02-04T12:59:01.109Z,1.67
2023-02-04T13:01:37.390Z,1.20
2023-02-04T13:04:11.579Z,1.30
2023-02-04T13:06:57.754Z,2.03
2023-02-04T13:12:18.942Z,1.70
2023-02-04T13:14:59.071Z,1.60
2023-02-04T13:17:39.717Z,1.50
2023-02-04T13:20:14.153Z,1.20
2023-02-04T13:22:50.949Z,1.33
2023-02-04T13:25:23.856Z,1.43
2023-02-04T13:27:58.962Z,1.10
2023-02-04T13:30:32.330Z,1.37
2023-02-04T13:33:09.987Z,1.30
2023-02-04T13:35:45.163Z,1.83
2023-02-04T13:38:18.506Z,1.73
2023-02-04T13:40:51.516Z,1.37
2023-02-04T13:43:25.540Z,1.60
2023-02-04T13:45:58.598Z,1.37
2023-02-04T13:48:34.006Z,1.47
2023-02-04T13:51:07.721Z,1.13
2023-02-04T13:53:40.948Z,1.50
2023-02-04T13:56:14.238Z,1.50
2023-02-04T13:58:50.188Z,1.30
2023-02-04T14:01:23.075Z,1.20
2023-02-04T14:03:58.025Z,1.40
2023-02-04T14:06:36.326Z,1.20
2023-02-04T14:09:09.274Z,1.23
2023-02-04T14:11:42.876Z,1.00
2023-02-04T14:14:16.401Z,0.97
2023-02-04T14:16:58.540Z,1.00
2023-02-04T14:19:33.572Z,1.13
2023-02-04T14:22:20.359Z,1.40
2023-02-04T14:24:55.657Z,1.20
2023-02-04T14:27:41.636Z,1.30
2023-02-04T14:30:17.433Z,1.20
2023-02-04T14:32:55.115Z,1.43
2023-02-04T14:35:33.162Z,1.10
2023-02-04T14:38:09.499Z,1.90
2023-02-04T14:40:45.515Z,1.57
2023-02-04T14:43:25.877Z,1.63
2023-02-04T14:46:03.974Z,1.87
2023-02-04T14:48:45.928Z,1.13
2023-02-04T14:51:26.576Z,1.23
2023-02-04T14:54:05.197Z,1.40
2023-02-04T14:57:04.627Z,1.60
2023-02-04T14:59:41.590Z,1.40
2023-02-04T15:02:28.809Z,1.37
2023-02-04T15:05:04.066Z,1.20
2023-02-04T15:07:40.454Z,1.20
2023-02-04T15:10:26.943Z,1.00
2023-02-04T15:13:00.232Z,2.00
2023-02-04T15:15:36.288Z,1.60
2023-02-04T15:18:17.043Z,1.30
2023-02-04T15:20:55.063Z,1.30
2023-02-04T15:23:30.526Z,1.53
2023-02-04T15:26:19.202Z,1.10
2023-02-04T15:31:51.590Z,1.63
2023-02-04T15:34:24.830Z,1.57
2023-02-04T15:36:57.944Z,1.43
2023-02-04T15:39:34.130Z,1.47
2023-02-04T15:42:12.347Z,1.60
2023-02-04T15:44:45.848Z,1.67
2023-02-04T15:47:20.049Z,1.80
2023-02-04T15:49:54.824Z,1.73
2023-02-04T15:52:29.377Z,1.77
2023-02-04T15:55:04.089Z,1.83
2023-02-04T15:57:38.533Z,1.60
2023-02-04T16:00:12.523Z,1.70
2023-02-04T16:02:50.646Z,1.73
2023-02-04T16:05:29.110Z,1.97
2023-02-04T16:08:12.683Z,1.60
2023-02-04T16:10:49.723Z,1.73
2023-02-04T16:13:36.468Z,1.73
2023-02-04T16:16:32.420Z,1.60
2023-02-04T16:19:15.210Z,1.67
2023-02-04T16:21:55.106Z,1.40
2023-02-04T16:24:39.872Z,1.63
2023-02-04T16:27:18.480Z,1.83
2023-02-04T16:29:59.348Z,2.00
2023-02-04T16:32:41.413Z,2.10
2023-02-04T16:35:39.106Z,2.10
2023-02-04T16:38:19.843Z,2.17
2023-02-04T16:44:20.930Z,1.73
2023-02-04T16:46:56.169Z,2.07
2023-02-04T16:53:10.966Z,1.70
2023-02-04T16:55:59.713Z,1.63
2023-02-04T16:58:51.258Z,1.80
2023-02-04T17:01:32.026Z,2.13
2023-02-04T17:04:11.406Z,1.87
2023-02-04T17:06:47.923Z,1.80
2023-02-04T17:09:53.383Z,2.20
2023-02-04T17:12:34.127Z,3.10
2023-02-04T17:15:16.500Z,2.20
2023-02-04T17:18:00.721Z,2.53
2023-02-04T17:20:33.961Z,2.40
2023-02-04T17:23:09.617Z,2.90
2023-02-04T17:25:42.580Z,2.40
2023-02-04T17:28:25.545Z,2.70
2023-02-04T17:30:59.018Z,2.97
2023-02-04T17:33:42.767Z,3.43
2023-02-04T17:36:17.446Z,3.23
2023-02-04T17:39:29.332Z,2.97
2023-02-04T17:42:02.829Z,2.87
2023-02-04T17:44:35.976Z,2.90
2023-02-04T17:47:11.009Z,3.30
2023-02-04T17:49:46.461Z,3.37
2023-02-04T17:52:42.978Z,3.37
2023-02-04T17:55:39.700Z,3.63
2023-02-04T17:58:38.382Z,3.37
2023-02-04T18:01:21.460Z,3.80
2023-02-04T18:03:57.536Z,3.80
2023-02-04T18:06:37.627Z,3.67
2023-02-04T18:09:16.130Z,3.70
2023-02-04T18:12:07.914Z,3.53
2023-02-04T18:14:56.969Z,4.00
2023-02-04T18:17:37.418Z,3.50
2023-02-04T18:20:28.477Z,3.87
2023-02-04T18:23:06.148Z,4.30
2023-02-04T18:25:41.311Z,3.77
2023-02-04T18:28:18.663Z,3.77
2023-02-04T18:30:56.884Z,3.97
2023-02-04T18:33:33.650Z,3.63
2023-02-04T18:36:07.062Z,4.20
2023-02-04T18:38:44.626Z,3.90
2023-02-04T18:41:31.550Z,3.83
2023-02-04T18:44:23.608Z,3.60
2023-02-04T18:46:57.340Z,3.60
2023-02-04T18:49:30.764Z,3.30
2023-02-04T18:52:15.051Z,3.33
2023-02-04T18:54:54.211Z,3.17
2023-02-04T18:57:31.282Z,3.17
2023-02-04T19:00:27.334Z,2.97
2023-02-04T19:03:01.864Z,2.50
2023-02-04T19:05:52.151Z,3.03
2023-02-04T19:08:38.965Z,2.40
2023-02-04T19:11:28.613Z,2.10
2023-02-04T19:14:03.827Z,2.47
2023-02-04T19:16:57.613Z,2.50
2023-02-04T19:23:16.290Z,2.30
2023-02-04T19:26:28.854Z,2.60
2023-02-04T19:29:29.844Z,1.83
2023-02-04T19:32:33.527Z,2.20
2023-02-04T19:35:49.422Z,2.40
2023-02-04T19:38:52.933Z,2.77
2023-02-04T19:41:29.713Z,2.90
2023-02-04T19:44:24.974Z,2.90
2023-02-04T19:47:05.855Z,2.93
2023-02-04T19:49:48.258Z,3.23
2023-02-04T19:52:30.037Z,3.00
2023-02-04T19:55:40.239Z,2.40
2023-02-04T19:58:23.665Z,3.03
2023-02-04T20:00:59.532Z,2.90
2023-02-04T20:03:37.431Z,2.70
2023-02-04T20:06:27.673Z,2.90
2023-02-04T20:09:03.430Z,2.33
2023-02-04T20:12:07.849Z,3.80
2023-02-04T20:14:47.248Z,3.10
2023-02-04T20:17:32.497Z,3.27
2023-02-04T20:20:28.638Z,2.80
2023-02-04T20:23:03.634Z,3.23
2023-02-04T20:25:39.874Z,2.97
2023-02-04T20:28:26.654Z,2.80
2023-02-04T20:31:07.578Z,3.70
2023-02-04T20:33:53.208Z,3.50
2023-02-04T20:36:46.218Z,4.70
2023-02-04T20:39:38.655Z,5.17
2023-02-04T20:42:28.588Z,4.70
2023-02-04T20:45:28.535Z,3.63
2023-02-04T20:48:03.086Z,3.30
2023-02-04T20:50:43.546Z,3.87
2023-02-04T20:53:18.650Z,3.57
2023-02-04T20:55:52.921Z,3.47
2023-02-04T20:58:28.079Z,3.63
2023-02-04T21:01:01.844Z,4.60
2023-02-04T21:03:35.856Z,4.57
2023-02-04T21:06:20.006Z,4.20
2023-02-04T21:08:55.448Z,4.07
2023-02-04T21:11:28.426Z,3.67
2023-02-04T21:14:02.269Z,3.00
2023-02-04T21:16:35.491Z,3.73
2023-02-04T21:19:10.162Z,3.30
2023-02-04T21:21:44.607Z,3.27
2023-02-04T21:24:19.027Z,4.03
2023-02-04T21:26:51.975Z,3.60
2023-02-04T21:29:26.187Z,3.50
2023-02-04T21:31:59.393Z,3.30
2023-02-04T21:34:32.931Z,3.90
2023-02-04T21:37:11.455Z,3.60
2023-02-04T21:39:50.295Z,3.83
2023-02-04T21:42:26.329Z,3.43
2023-02-04T21:45:10.266Z,3.67
2023-02-04T21:47:45.784Z,3.40
2023-02-04T21:50:19.781Z,3.83
2023-02-04T21:52:58.604Z,4.50
2023-02-04T21:55:34.698Z,4.43
2023-02-04T21:58:16.991Z,3.77
2023-02-04T22:00:54.196Z,4.23
2023-02-04T22:03:32.319Z,3.90
2023-02-04T22:06:06.136Z,3.53
2023-02-04T22:08:40.646Z,3.73
2023-02-04T22:11:17.641Z,3.27
2023-02-04T22:13:53.671Z,3.13
2023-02-04T22:16:30.425Z,3.17
2023-02-04T22:19:06.569Z,3.73
2023-02-04T22:21:40.688Z,3.67
2023-02-04T22:24:18.141Z,3.07
2023-02-04T22:26:59.590Z,3.80
2023-02-04T22:29:36.069Z,4.00
2023-02-04T22:32:17.866Z,3.63
2023-02-04T22:38:01.669Z,2.70
2023-02-04T22:40:48.669Z,3.50
2023-02-04T22:43:51.290Z,3.10
2023-02-04T22:46:41.660Z,3.20
2023-02-04T22:49:19.711Z,2.73
2023-02-04T22:52:20.992Z,2.70
2023-02-04T22:54:58.284Z,2.93
2023-02-04T22:57:44.902Z,3.17
2023-02-04T23:00:19.640Z,3.13
2023-02-04T23:02:53.416Z,3.63
2023-02-04T23:05:40.010Z,3.73
2023-02-04T23:08:53.705Z,3.90
2023-02-04T23:11:33.353Z,3.90
2023-02-04T23:14:11.996Z,3.50
2023-02-04T23:16:57.910Z,3.70
2023-02-04T23:19:30.997Z,4.10
2023-02-04T23:22:04.371Z,3.73
2023-02-04T23:24:40.218Z,3.63
2023-02-04T23:27:13.560Z,3.70
2023-02-04T23:29:49.537Z,2.97
2023-02-04T23:32:27.109Z,3.70
2023-02-04T23:35:00.100Z,3.70
2023-02-04T23:37:33.403Z,3.50
2023-02-04T23:40:06.925Z,3.43
2023-02-04T23:42:40.254Z,3.30
2023-02-04T23:45:15.472Z,3.40
2023-02-04T23:47:50.849Z,2.60
2023-02-04T23:50:24.225Z,3.43
2023-02-04T23:52:58.895Z,2.83
2023-02-04T23:55:32.034Z,3.30
2023-02-04T23:58:06.758Z,2.90
